Time;durP1;ratioP1;P1;durP2;ratioP2;P2;SDS_P1;SDS_P2;PMS_P1;PMS_P2;Temp;Humidity;BMP_temperature;BMP_pressure;BME280_temperature;BME280_humidity;BME280_pressure;Samples;Min_cycle;Max_cycle;Signal;HPM_P1;HPM_P2
2023/12/13 00:02:10;;;;;;;68.78;49.65;;;;;;;13.11;100.00;101416.63;143721;661;47006;-75
2023/12/13 00:04:36;;;;;;;72.28;49.65;;;;;;;13.08;100.00;101414.31;143722;590;47012;-76
2023/12/13 00:07:03;;;;;;;53.25;41.80;;;;;;;13.04;100.00;101418.47;143720;616;47006;-75
2023/12/13 00:09:29;;;;;;;52.38;39.60;;;;;;;13.08;100.00;101424.28;143721;637;47009;-74
2023/12/13 00:11:55;;;;;;;56.50;40.40;;;;;;;12.99;100.00;101426.31;143722;590;47004;-74
2023/12/13 00:14:22;;;;;;;50.20;38.20;;;;;;;12.98;100.00;101422.75;143722;569;47012;-74
2023/12/13 00:16:49;;;;;;;50.17;36.35;;;;;;;12.99;100.00;101421.75;143720;567;47006;-75
2023/12/13 00:19:15;;;;;;;43.53;33.72;;;;;;;13.00;100.00;101431.50;143722;633;47008;-74
2023/12/13 00:21:42;;;;;;;38.13;29.30;;;;;;;13.00;100.00;101427.97;143722;648;47004;-75
2023/12/13 00:24:09;;;;;;;44.10;30.17;;;;;;;12.93;100.00;101419.84;143721;616;47011;-75
2023/12/13 00:26:35;;;;;;;34.05;26.17;;;;;;;12.95;100.00;101419.63;143722;661;47006;-74
2023/12/13 00:29:02;;;;;;;33.35;24.55;;;;;;;12.88;100.00;101423.13;143721;568;47008;-74
2023/12/13 00:31:29;;;;;;;32.80;24.42;;;;;;;12.83;100.00;101422.88;143723;581;47004;-74
2023/12/13 00:33:56;;;;;;;30.20;23.83;;;;;;;12.84;100.00;101421.88;143718;612;47010;-74
2023/12/13 00:36:22;;;;;;;23.38;18.15;;;;;;;12.87;100.00;101424.19;143722;583;47006;-75
2023/12/13 00:38:49;;;;;;;26.65;19.77;;;;;;;12.78;100.00;101425.34;143724;645;47008;-74
2023/12/13 00:41:16;;;;;;;29.30;20.73;;;;;;;12.79;100.00;101423.50;143722;582;47006;-76
2023/12/13 00:43:42;;;;;;;26.20;19.08;;;;;;;12.81;100.00;101414.16;143721;572;47010;-75
2023/12/13 00:46:22;;;;;;;27.62;21.48;;;;;;;12.79;100.00;101418.09;143723;703;47013;-75
2023/12/13 00:48:49;;;;;;;31.92;23.60;;;;;;;12.76;100.00;101411.22;143716;581;48014;-75
2023/12/13 00:51:20;;;;;;;30.52;23.48;;;;;;;12.78;100.00;101413.72;143721;625;47006;-74
2023/12/13 00:53:46;;;;;;;30.45;22.95;;;;;;;12.76;100.00;101411.22;143719;632;47012;-75
2023/12/13 00:56:13;;;;;;;35.30;25.25;;;;;;;12.78;100.00;101405.66;143720;577;47006;-75
2023/12/13 00:58:40;;;;;;;35.05;24.25;;;;;;;12.80;100.00;101398.16;143722;649;47006;-75
2023/12/13 01:01:06;;;;;;;32.35;24.77;;;;;;;12.83;100.00;101397.78;143721;614;47006;-75
2023/12/13 01:03:33;;;;;;;32.90;24.08;;;;;;;12.80;100.00;101396.31;143722;610;48010;-74
2023/12/13 01:05:59;;;;;;;31.95;24.50;;;;;;;12.78;100.00;101403.78;143721;586;47004;-74
2023/12/13 01:08:26;;;;;;;31.70;24.17;;;;;;;12.67;100.00;101407.84;143722;653;47008;-75
2023/12/13 01:10:52;;;;;;;33.03;25.52;;;;;;;12.62;100.00;101402.19;143726;567;46008;-74
2023/12/13 01:13:19;;;;;;;30.37;24.48;;;;;;;12.67;100.00;101398.94;143721;647;47010;-75
2023/12/13 01:15:45;;;;;;;36.47;25.50;;;;;;;12.68;100.00;101401.41;143721;627;47007;-76
2023/12/13 01:18:11;;;;;;;32.67;25.02;;;;;;;12.64;100.00;101408.22;143723;590;47008;-75
2023/12/13 01:20:38;;;;;;;34.70;25.75;;;;;;;12.59;100.00;101408.81;143722;659;47004;-76
2023/12/13 01:23:04;;;;;;;32.40;24.90;;;;;;;12.63;100.00;101403.03;143720;675;47011;-75
2023/12/13 01:25:30;;;;;;;32.63;22.60;;;;;;;12.64;100.00;101394.75;143721;662;47006;-74
2023/12/13 01:27:57;;;;;;;28.50;22.13;;;;;;;12.63;100.00;101393.06;143721;649;47008;-75
2023/12/13 01:30:25;;;;;;;26.73;20.62;;;;;;;12.64;100.00;101381.25;143725;644;47004;-74
2023/12/13 01:32:52;;;;;;;27.62;20.27;;;;;;;12.58;100.00;101376.69;143723;583;47013;-75
2023/12/13 01:35:18;;;;;;;24.92;19.08;;;;;;;12.61;100.00;101367.38;143719;650;47006;-75
2023/12/13 01:37:45;;;;;;;25.67;19.10;;;;;;;12.62;100.00;101369.84;143722;612;47009;-75
2023/12/13 01:40:11;;;;;;;25.17;19.73;;;;;;;12.62;100.00;101369.03;143715;643;49006;-76
2023/12/13 01:42:38;;;;;;;26.70;19.87;;;;;;;12.63;100.00;101354.53;143723;572;47010;-75
2023/12/13 01:45:06;;;;;;;25.52;20.00;;;;;;;12.59;100.00;101356.78;143720;607;47007;-74
2023/12/13 01:47:33;;;;;;;22.75;18.90;;;;;;;12.59;100.00;101362.19;143720;567;47008;-75
2023/12/13 01:49:59;;;;;;;25.58;18.37;;;;;;;12.55;100.00;101360.91;143720;604;47004;-74
2023/12/13 01:52:26;;;;;;;27.42;20.08;;;;;;;12.52;100.00;101361.28;143722;626;47012;-75
2023/12/13 01:54:54;;;;;;;22.55;19.42;;;;;;;12.56;100.00;101358.00;143720;602;47930;-75
2023/12/13 01:57:20;;;;;;;23.65;19.48;;;;;;;12.56;100.00;101357.19;143724;686;46008;-75
2023/12/13 01:59:47;;;;;;;22.37;19.27;;;;;;;12.55;100.00;101356.31;143728;591;46009;-74
2023/12/13 04:02:33;;;;;;;15.82;11.07;;;;;;;12.12;100.00;101319.53;143731;665;45922;-74
2023/12/13 04:04:59;;;;;;;18.40;11.77;;;;;;;12.18;100.00;101317.91;143728;608;46006;-74
2023/12/13 04:07:25;;;;;;;18.23;11.65;;;;;;;12.26;100.00;101317.78;143726;609;47004;-75
2023/12/13 04:09:52;;;;;;;17.48;12.15;;;;;;;12.22;100.00;101324.56;143725;567;46013;-75
2023/12/13 04:12:18;;;;;;;21.52;10.77;;;;;;;12.18;100.00;101317.09;143723;596;47004;-74
2023/12/13 04:14:45;;;;;;;16.98;10.88;;;;;;;12.15;100.00;101304.84;143726;627;47006;-74
2023/12/13 04:17:11;;;;;;;15.55;11.18;;;;;;;12.16;100.00;101311.91;143725;634;47002;-74
2023/12/13 04:19:38;;;;;;;19.85;12.18;;;;;;;12.19;100.00;101326.84;143724;575;47008;-74
2023/12/13 04:22:04;;;;;;;23.05;13.00;;;;;;;12.03;100.00;101312.63;143722;655;47004;-74
2023/12/13 04:24:30;;;;;;;23.55;14.30;;;;;;;12.03;100.00;101309.94;143720;644;48924;-73
2023/12/13 04:26:57;;;;;;;22.67;15.25;;;;;;;12.03;100.00;101314.47;143726;628;47000;-74
2023/12/13 04:29:23;;;;;;;32.50;19.33;;;;;;;12.01;100.00;101306.59;143726;676;47008;-73
2023/12/13 04:31:50;;;;;;;28.48;17.33;;;;;;;12.05;100.00;101304.34;143724;629;47004;-73
2023/12/13 04:34:16;;;;;;;30.70;18.42;;;;;;;12.03;100.00;101326.09;143722;666;47006;-74
2023/12/13 04:36:43;;;;;;;29.27;18.12;;;;;;;11.99;100.00;101327.50;143724;677;47003;-74
2023/12/13 04:39:10;;;;;;;23.87;16.08;;;;;;;11.92;100.00;101334.63;143723;676;47011;-74
2023/12/13 04:41:38;;;;;;;24.05;16.40;;;;;;;11.86;100.00;101332.72;143722;666;47004;-75
2023/12/13 04:44:07;;;;;;;26.77;15.60;;;;;;;11.87;100.00;101339.78;143722;569;47009;-75
2023/12/13 04:46:33;;;;;;;23.33;14.85;;;;;;;11.87;100.00;101343.28;143725;644;47004;-74
2023/12/13 04:49:00;;;;;;;21.17;16.60;;;;;;;11.87;100.00;101345.97;143725;671;47010;-74
2023/12/13 04:51:26;;;;;;;30.20;16.73;;;;;;;11.93;100.00;101342.53;143722;638;47007;-74
2023/12/13 04:53:52;;;;;;;24.58;16.60;;;;;;;11.94;100.00;101341.50;143723;610;47008;-74
2023/12/13 04:56:19;;;;;;;20.25;14.75;;;;;;;11.88;100.00;101339.56;143723;590;47004;-75
2023/12/13 04:58:45;;;;;;;23.62;14.93;;;;;;;11.93;100.00;101339.00;143722;612;47930;-75
2023/12/13 05:01:11;;;;;;;23.85;14.65;;;;;;;11.87;100.00;101332.50;143722;675;47006;-74
2023/12/13 05:03:38;;;;;;;18.23;13.20;;;;;;;11.93;100.00;101336.28;143726;624;47008;-76
2023/12/13 05:06:04;;;;;;;25.12;14.38;;;;;;;11.89;100.00;101335.03;143725;667;47004;-74
2023/12/13 05:08:33;;;;;;;23.50;14.07;;;;;;;11.90;100.00;101334.84;143721;680;47008;-75
2023/12/13 05:11:00;;;;;;;21.92;14.20;;;;;;;11.90;100.00;101340.22;143721;582;47006;-74
2023/12/13 05:13:27;;;;;;;21.52;13.60;;;;;;;11.90;100.00;101339.41;143725;651;47008;-74
2023/12/13 05:15:53;;;;;;;20.67;13.00;;;;;;;11.88;100.00;101330.69;143724;618;47004;-75
2023/12/13 05:18:19;;;;;;;23.12;14.05;;;;;;;11.82;100.00;101343.03;143724;566;47010;-75
2023/12/13 05:20:49;;;;;;;25.62;15.35;;;;;;;11.82;100.00;101341.19;143723;576;47010;-75
2023/12/13 05:23:15;;;;;;;28.75;18.55;;;;;;;11.82;100.00;101343.88;143723;581;48008;-75
2023/12/13 05:25:41;;;;;;;39.08;22.30;;;;;;;11.80;100.00;101324.38;143723;572;47004;-75
2023/12/13 05:28:09;;;;;;;41.85;27.62;;;;;;;11.74;100.00;101324.31;143724;601;47010;-74
2023/12/13 05:30:36;;;;;;;47.45;29.92;;;;;;;11.76;100.00;101325.78;143723;621;47006;-75
2023/12/13 05:33:02;;;;;;;44.60;28.58;;;;;;;11.80;100.00;101323.56;143724;600;47008;-76
2023/12/13 05:35:28;;;;;;;50.50;30.80;;;;;;;11.82;100.00;101316.13;143725;615;47004;-74
2023/12/13 05:37:55;;;;;;;49.53;31.23;;;;;;;11.80;100.00;101316.31;143725;630;47010;-75
2023/12/13 05:40:21;;;;;;;44.92;28.38;;;;;;;11.81;100.00;101322.53;143724;584;47006;-74
2023/12/13 05:42:47;;;;;;;40.33;26.52;;;;;;;11.77;100.00;101319.38;143724;680;47008;-75
2023/12/13 05:45:14;;;;;;;47.15;28.62;;;;;;;11.79;100.00;101322.72;143725;675;47004;-76
2023/12/13 05:47:40;;;;;;;39.42;27.30;;;;;;;11.83;100.00;101317.78;143723;630;47010;-74
2023/12/13 05:50:07;;;;;;;37.38;26.25;;;;;;;11.87;100.00;101310.97;143722;678;47006;-73
2023/12/13 05:52:34;;;;;;;37.40;25.33;;;;;;;11.92;100.00;101310.41;143725;573;47008;-74
2023/12/13 05:55:00;;;;;;;44.30;25.48;;;;;;;11.82;100.00;101305.38;143724;617;47006;-74
2023/12/13 05:57:26;;;;;;;42.65;25.05;;;;;;;11.85;100.00;101309.53;143722;575;47012;-74
2023/12/13 05:59:53;;;;;;;36.95;24.70;;;;;;;11.88;100.00;101309.97;143724;669;47006;-74
2023/12/13 06:02:19;;;;;;;44.20;24.83;;;;;;;11.91;100.00;101309.59;143722;572;47008;-72
2023/12/13 06:04:47;;;;;;;42.40;25.45;;;;;;;11.91;100.00;101309.59;143725;607;47004;-73
2023/12/13 06:07:16;;;;;;;46.45;25.08;;;;;;;11.91;100.00;101314.16;143725;657;47010;-74
2023/12/13 06:09:42;;;;;;;52.62;25.75;;;;;;;12.01;100.00;101311.97;143723;645;47006;-74
2023/12/13 06:12:09;;;;;;;48.00;24.60;;;;;;;12.02;100.00;101313.66;143724;580;47008;-75
2023/12/13 06:14:36;;;;;;;51.88;26.98;;;;;;;12.05;100.00;101304.34;143725;689;47006;-74
2023/12/13 06:17:02;;;;;;;49.03;26.23;;;;;;;12.04;100.00;101311.59;143723;651;47010;-72
2023/12/13 06:19:29;;;;;;;52.15;26.08;;;;;;;12.06;100.00;101316.78;143722;651;47006;-74
2023/12/13 06:21:58;;;;;;;50.12;27.08;;;;;;;12.05;100.00;101325.88;143725;674;46009;-74
2023/12/13 06:24:25;;;;;;;48.25;27.27;;;;;;;12.12;100.00;101327.59;143722;647;47004;-74
2023/12/13 06:26:51;;;;;;;51.97;28.90;;;;;;;12.19;100.00;101327.66;143724;653;47012;-74
2023/12/13 06:29:18;;;;;;;57.75;27.83;;;;;;;12.26;100.00;101327.75;143723;662;47006;-74
2023/12/13 06:31:44;;;;;;;65.93;36.88;;;;;;;12.27;100.00;101326.69;143727;600;46022;-73
2023/12/13 06:34:11;;;;;;;64.80;34.72;;;;;;;12.27;100.00;101332.91;143724;598;47004;-74
2023/12/13 06:36:38;;;;;;;65.87;38.38;;;;;;;12.32;100.00;101321.56;143725;676;46012;-74
2023/12/13 06:39:04;;;;;;;70.15;38.00;;;;;;;12.41;100.00;101322.25;143720;594;47928;-75
2023/12/13 06:41:31;;;;;;;62.65;37.53;;;;;;;12.48;100.00;101322.28;143726;693;47008;-75
2023/12/13 06:43:58;;;;;;;66.78;39.97;;;;;;;12.59;100.00;101327.16;143726;600;47004;-75
2023/12/13 06:46:24;;;;;;;62.25;39.08;;;;;;;12.69;100.00;101337.59;143724;574;47010;-74
2023/12/13 06:48:51;;;;;;;40.50;26.23;;;;;;;12.70;100.00;101333.84;143723;680;47006;-74
2023/12/13 06:51:19;;;;;;;37.67;22.08;;;;;;;12.72;100.00;101323.69;143724;663;47009;-75
2023/12/13 06:53:46;;;;;;;36.53;21.50;;;;;;;12.75;100.00;101339.47;143723;661;47004;-74
2023/12/13 06:56:12;;;;;;;36.55;20.37;;;;;;;12.83;100.00;101331.22;143724;637;47010;-74
2023/12/13 06:58:39;;;;;;;31.90;20.95;;;;;;;12.97;100.00;101329.41;143723;627;47006;-75
2023/12/13 07:01:06;;;;;;;26.05;18.70;;;;;;;13.09;100.00;101329.69;143726;676;47008;-75
2023/12/13 07:03:32;;;;;;;43.50;20.65;;;;;;;13.15;100.00;101328.06;143721;605;47006;-74
2023/12/13 07:05:58;;;;;;;33.70;20.75;;;;;;;13.25;100.00;101336.62;143721;626;47930;-74
2023/12/13 07:08:25;;;;;;;30.45;19.17;;;;;;;13.35;100.00;101326.28;143722;589;48006;-75
2023/12/13 07:10:51;;;;;;;30.35;20.88;;;;;;;13.49;100.00;101329.06;143723;694;47008;-74
2023/12/13 07:13:18;;;;;;;34.33;22.30;;;;;;;13.59;100.00;101329.50;143724;629;47004;-75
2023/12/13 07:15:44;;;;;;;33.42;22.13;;;;;;;13.72;100.00;101339.50;143724;577;47013;-74
2023/12/13 07:18:10;;;;;;;41.50;24.17;;;;;;;13.83;100.00;101350.72;143722;662;47006;-75
2023/12/13 07:20:37;;;;;;;34.92;24.33;;;;;;;13.89;100.00;101347.22;143726;567;47009;-75
2023/12/13 07:23:05;;;;;;;33.40;22.55;;;;;;;13.95;100.00;101344.53;143724;588;47004;-74
2023/12/13 07:25:31;;;;;;;35.25;24.87;;;;;;;13.94;100.00;101342.88;143722;604;47012;-74
2023/12/13 07:27:58;;;;;;;40.88;27.37;;;;;;;14.01;100.00;101348.28;143722;638;47006;-74
2023/12/13 07:30:24;;;;;;;43.33;28.83;;;;;;;14.08;100.00;101343.72;143724;637;47008;-74
2023/12/13 07:32:53;;;;;;;35.50;26.83;;;;;;;14.16;100.00;101344.53;143725;581;47006;-74
2023/12/13 07:35:19;;;;;;;28.73;23.25;;;;;;;14.17;100.00;101346.19;143722;592;47010;-75
2023/12/13 07:37:47;;;;;;;38.78;27.23;;;;;;;14.18;100.00;101339.75;143721;576;47006;-74
2023/12/13 07:40:13;;;;;;;38.63;26.15;;;;;;;14.15;100.00;101332.06;143723;568;47004;-74
2023/12/13 07:42:41;;;;;;;36.42;26.50;;;;;;;14.19;100.00;101323.38;143725;587;47002;-75
2023/12/13 07:45:13;;;;;;;39.28;26.37;;;;;;;14.34;100.00;101323.12;143728;595;47013;-72
2023/12/13 07:47:40;;;;;;;37.45;25.90;;;;;;;14.39;100.00;101307.13;143726;601;46006;-72
2023/12/13 07:50:07;;;;;;;30.62;24.77;;;;;;;14.42;100.00;101305.06;143726;602;47008;-74
2023/12/13 07:52:34;;;;;;;38.25;25.23;;;;;;;14.49;100.00;101305.84;143724;573;47006;-73
2023/12/13 07:55:01;;;;;;;38.13;28.30;;;;;;;14.57;100.00;101302.94;143725;617;47012;-73
2023/12/13 07:57:27;;;;;;;41.58;29.37;;;;;;;14.65;100.00;101299.19;143722;593;47007;-74
2023/12/13 07:59:53;;;;;;;35.28;26.67;;;;;;;14.66;100.00;101287.34;143723;589;47009;-75
2023/12/13 08:02:20;;;;;;;29.02;24.08;;;;;;;14.70;100.00;101275.09;143728;595;46012;-75
2023/12/13 08:04:46;;;;;;;35.20;25.15;;;;;;;14.76;100.00;101268.81;143725;623;47010;-75
2023/12/13 08:07:13;;;;;;;33.65;24.90;;;;;;;14.76;100.00;101255.28;143724;605;47006;-73
2023/12/13 08:09:39;;;;;;;32.38;25.27;;;;;;;14.79;100.00;101254.06;143723;607;47008;-74
2023/12/13 08:12:06;;;;;;;34.80;24.60;;;;;;;14.83;100.00;101263.38;143723;612;47006;-74
2023/12/13 08:14:33;;;;;;;35.45;25.92;;;;;;;14.88;100.00;101263.56;143725;579;47004;-74
2023/12/13 08:17:02;;;;;;;46.22;28.25;;;;;;;14.87;100.00;101269.22;143724;592;47006;-75
2023/12/13 08:19:28;;;;;;;40.47;29.35;;;;;;;14.90;100.00;101261.50;143723;577;47008;-73
2023/12/13 08:21:55;;;;;;;41.92;27.75;;;;;;;14.94;100.00;101265.44;143723;607;47007;-74
2023/12/13 08:24:21;;;;;;;41.70;28.65;;;;;;;14.97;100.00;101259.59;143723;655;47012;-74
2023/12/13 08:26:47;;;;;;;42.08;27.55;;;;;;;15.03;100.00;101257.91;143723;567;47006;-74
2023/12/13 08:29:14;;;;;;;52.22;25.75;;;;;;;15.07;100.00;101256.44;143725;578;47008;-74
2023/12/13 08:31:40;;;;;;;39.70;26.00;;;;;;;15.08;100.00;101249.12;143724;578;47004;-75
2023/12/13 08:34:07;;;;;;;44.00;27.60;;;;;;;15.05;100.00;101255.81;143724;617;47010;-74
2023/12/13 08:36:33;;;;;;;41.97;26.92;;;;;;;15.04;100.00;101234.38;143718;589;47007;-74
2023/12/13 08:39:00;;;;;;;42.70;27.50;;;;;;;15.04;100.00;101242.50;143722;606;47008;-73
2023/12/13 08:41:27;;;;;;;40.33;27.15;;;;;;;15.12;100.00;101234.94;143720;581;47004;-75
2023/12/13 08:43:54;;;;;;;45.80;27.65;;;;;;;15.14;100.00;101234.75;143721;573;47011;-75
2023/12/13 08:46:20;;;;;;;46.70;27.98;;;;;;;15.15;100.00;101237.22;143721;605;47006;-74
2023/12/13 08:48:46;;;;;;;47.83;31.73;;;;;;;15.23;100.00;101240.75;143723;588;47008;-75
2023/12/13 08:51:13;;;;;;;43.38;30.00;;;;;;;15.30;100.00;101241.53;143721;593;47004;-75
2023/12/13 08:53:39;;;;;;;45.65;30.23;;;;;;;15.30;100.00;101238.81;143722;614;47010;-74
2023/12/13 08:56:06;;;;;;;60.67;35.38;;;;;;;15.26;100.00;101240.31;143720;610;47006;-74
2023/12/13 08:58:33;;;;;;;49.63;33.47;;;;;;;15.34;100.00;101229.22;143721;632;47009;-70
2023/12/13 09:00:59;;;;;;;44.80;33.38;;;;;;;15.41;100.00;101223.75;143723;605;47004;-70
2023/12/13 09:03:26;;;;;;;53.60;32.08;;;;;;;15.43;100.00;101233.34;143722;566;47010;-69
2023/12/13 09:05:53;;;;;;;49.55;33.65;;;;;;;15.53;100.00;101226.59;143720;615;47006;-69
2023/12/13 09:08:20;;;;;;;50.97;34.65;;;;;;;15.53;100.00;101230.13;143722;604;47008;-69
2023/12/13 09:10:46;;;;;;;52.15;33.83;;;;;;;15.55;100.00;101232.63;143724;583;47008;-69
2023/12/13 09:13:13;;;;;;;47.92;33.60;;;;;;;15.54;100.00;101218.25;143721;573;47011;-70
2023/12/13 09:15:40;;;;;;;49.88;32.90;;;;;;;15.58;100.00;101224.88;143720;607;47006;-69
2023/12/13 09:18:06;;;;;;;54.20;31.70;;;;;;;15.63;100.00;101215.28;143723;647;47008;-69
2023/12/13 09:20:33;;;;;;;49.25;32.22;;;;;;;15.65;100.00;101218.59;143722;615;47005;-68
2023/12/13 09:22:59;;;;;;;45.78;31.67;;;;;;;15.67;100.00;101230.88;143718;612;49004;-69
2023/12/13 09:25:25;;;;;;;47.95;33.05;;;;;;;15.64;100.00;101225.88;143721;567;47004;-70
2023/12/13 09:27:52;;;;;;;49.72;31.42;;;;;;;15.62;100.00;101227.97;143723;610;47007;-69
2023/12/13 09:30:18;;;;;;;41.35;28.90;;;;;;;15.70;100.00;101226.91;143722;624;47004;-70
2023/12/13 09:32:44;;;;;;;47.13;29.77;;;;;;;15.80;100.00;101219.09;143723;606;47010;-70
2023/12/13 09:35:11;;;;;;;45.88;28.62;;;;;;;15.84;100.00;101223.03;143721;609;47004;-71
2023/12/13 09:37:37;;;;;;;42.20;25.73;;;;;;;15.82;100.00;101221.56;143722;567;47006;-71
2023/12/13 09:40:04;;;;;;;43.17;28.08;;;;;;;15.79;100.00;101225.56;143721;607;47004;-71
2023/12/13 09:42:30;;;;;;;44.75;28.73;;;;;;;15.80;100.00;101219.09;143722;580;47010;-71
2023/12/13 09:44:59;;;;;;;41.28;26.85;;;;;;;15.81;100.00;101225.34;143720;633;47004;-71
2023/12/13 09:47:28;;;;;;;45.70;25.70;;;;;;;15.80;100.00;101210.13;143724;595;47006;-71
2023/12/13 09:49:54;;;;;;;49.08;26.87;;;;;;;15.82;100.00;101202.63;143721;613;47002;-71
2023/12/13 09:52:22;;;;;;;42.47;26.92;;;;;;;15.87;100.00;101200.97;143722;611;47008;-71
2023/12/13 09:54:50;;;;;;;45.20;23.12;;;;;;;15.83;100.00;101199.69;143723;641;46015;-71
2023/12/13 09:57:17;;;;;;;37.85;24.60;;;;;;;15.86;100.00;101183.03;143722;577;47926;-71
2023/12/13 09:59:45;;;;;;;42.13;23.42;;;;;;;15.82;100.00;101176.37;143723;606;47002;-71
2023/12/13 10:02:14;;;;;;;43.65;24.48;;;;;;;15.62;100.00;101176.53;143722;589;47008;-71
2023/12/13 10:04:43;;;;;;;41.65;23.25;;;;;;;15.42;100.00;101185.66;143721;617;47004;-71
2023/12/13 10:07:10;;;;;;;43.17;24.20;;;;;;;15.39;100.00;101185.25;143723;607;47006;-71
2023/12/13 10:09:36;;;;;;;41.40;24.42;;;;;;;15.42;100.00;101191.06;143721;591;47004;-71
2023/12/13 10:12:07;;;;;;;58.05;30.73;;;;;;;15.37;100.00;101193.59;143723;573;46009;-71
2023/12/13 10:14:37;;;;;;;53.03;31.58;;;;;;;15.48;100.00;101183.09;143721;590;47004;-71
2023/12/13 10:17:04;;;;;;;50.10;27.02;;;;;;;15.54;100.00;101172.22;143724;587;47006;-71
2023/12/13 10:19:32;;;;;;;34.80;24.15;;;;;;;15.57;100.00;101168.25;143722;611;47004;-71
2023/12/13 10:21:58;;;;;;;44.85;24.87;;;;;;;15.60;100.00;101167.81;143721;580;47010;-71
2023/12/13 10:24:25;;;;;;;36.42;25.02;;;;;;;15.68;100.00;101170.25;143721;617;47004;-70
2023/12/13 10:26:52;;;;;;;41.03;22.87;;;;;;;15.72;100.00;101165.19;143720;581;47002;-71
2023/12/13 10:29:20;;;;;;;46.47;23.70;;;;;;;15.72;100.00;101162.50;143723;595;47004;-70
2023/12/13 10:31:47;;;;;;;37.05;21.70;;;;;;;15.71;100.00;101160.84;143724;575;46010;-71
2023/12/13 10:34:13;;;;;;;50.55;24.30;;;;;;;15.67;100.00;101156.94;143721;619;47004;-70
2023/12/13 10:36:40;;;;;;;38.78;24.87;;;;;;;15.65;100.00;101146.31;143722;584;47006;-70
2023/12/13 10:39:07;;;;;;;36.35;24.37;;;;;;;15.61;100.00;101139.69;143724;639;47004;-70
2023/12/13 10:41:35;;;;;;;38.75;24.00;;;;;;;15.64;100.00;101133.81;143723;665;47002;-69
2023/12/13 10:44:02;;;;;;;50.58;26.20;;;;;;;15.65;100.00;101132.78;143720;579;47004;-73
2023/12/13 10:46:35;;;;;;;39.65;26.23;;;;;;;15.67;100.00;101133.38;143720;577;47926;-70
2023/12/13 10:49:03;;;;;;;49.08;25.55;;;;;;;15.71;100.00;101129.19;143722;578;47002;-72
2023/12/13 10:51:32;;;;;;;36.40;25.25;;;;;;;15.74;100.00;101108.94;143722;612;47011;-72
2023/12/13 10:54:00;;;;;;;38.33;22.45;;;;;;;15.76;100.00;101113.09;143721;617;47004;-72
2023/12/13 10:56:26;;;;;;;43.63;23.87;;;;;;;15.57;100.00;101123.06;143721;629;47007;-72
2023/12/13 10:58:53;;;;;;;35.97;23.42;;;;;;;15.41;100.00;101110.91;143721;607;47002;-73
2023/12/13 11:01:21;;;;;;;35.80;22.17;;;;;;;15.30;100.00;101109.75;143721;607;47010;-72
2023/12/13 11:03:57;;;;;;;33.53;21.77;;;;;;;15.38;100.00;101100.53;143720;596;47005;-72
2023/12/13 11:06:26;;;;;;;35.58;22.62;;;;;;;15.36;100.00;101099.91;143721;615;47006;-71
2023/12/13 11:08:52;;;;;;;39.17;24.27;;;;;;;15.43;100.00;101106.12;143724;615;47002;-73
2023/12/13 11:11:26;;;;;;;40.47;24.85;;;;;;;15.46;100.00;101102.94;143718;569;47010;-71
2023/12/13 11:13:55;;;;;;;35.72;22.92;;;;;;;15.46;100.00;101102.94;143720;579;47004;-73
2023/12/13 11:16:26;;;;;;;37.95;24.02;;;;;;;15.38;100.00;101105.09;143721;588;47006;-70
2023/12/13 11:18:56;;;;;;;35.55;22.17;;;;;;;15.44;100.00;101093.41;143723;595;47004;-74
2023/12/13 11:21:27;;;;;;;44.03;24.12;;;;;;;15.45;100.00;101093.16;143721;598;47008;-73
2023/12/13 11:24:08;;;;;;;34.92;24.05;;;;;;;15.52;100.00;101101.25;143720;631;47923;-74
2023/12/13 11:26:39;;;;;;;42.58;24.27;;;;;;;15.67;100.00;101094.66;143722;591;46007;-72
2023/12/13 11:29:14;;;;;;;36.15;22.70;;;;;;;15.75;100.00;101092.47;143722;610;47004;-73
2023/12/13 11:31:58;;;;;;;37.65;21.98;;;;;;;15.84;100.00;101070.50;143721;578;47010;-72
2023/12/13 11:34:42;;;;;;;34.42;21.52;;;;;;;15.90;100.00;101081.28;143722;570;47002;-72
2023/12/13 11:37:11;;;;;;;36.03;23.50;;;;;;;15.84;100.00;101068.66;143726;585;46006;-72
2023/12/13 11:39:38;;;;;;;34.80;22.20;;;;;;;15.87;100.00;101064.69;143722;608;47002;-72
2023/12/13 11:42:09;;;;;;;35.50;21.50;;;;;;;16.04;100.00;101067.63;143722;599;47004;-71
2023/12/13 11:44:37;;;;;;;36.17;23.25;;;;;;;16.32;100.00;101058.09;143721;617;47004;-73
2023/12/13 11:47:12;;;;;;;38.58;21.87;;;;;;;16.42;100.00;101076.53;143723;624;47006;-72
2023/12/13 11:49:39;;;;;;;34.75;22.02;;;;;;;16.42;100.00;101068.41;143724;611;47002;-72
2023/12/13 11:52:07;;;;;;;40.97;23.20;;;;;;;16.46;100.00;101065.00;143721;611;47010;-72
2023/12/13 11:54:33;;;;;;;31.45;22.60;;;;;;;16.64;100.00;101053.28;143721;607;47004;-73
2023/12/13 11:56:59;;;;;;;40.08;24.02;;;;;;;16.61;100.00;101061.88;143720;573;47003;-73
2023/12/13 11:59:26;;;;;;;41.10;24.15;;;;;;;16.47;100.00;101055.00;143722;579;47004;-73
2023/12/13 12:01:52;;;;;;;34.90;22.00;;;;;;;16.39;100.00;101055.28;143718;587;47006;-73
2023/12/13 12:04:19;;;;;;;31.80;21.17;;;;;;;16.37;100.00;101047.41;143723;586;47005;-72
2023/12/13 12:06:47;;;;;;;30.88;20.85;;;;;;;16.44;100.00;101050.84;143721;576;47008;-73
2023/12/13 12:09:15;;;;;;;38.35;23.48;;;;;;;16.41;100.00;101050.47;143721;602;47004;-73
2023/12/13 12:11:41;;;;;;;38.10;23.85;;;;;;;16.39;100.00;101039.88;143722;575;47012;-73
2023/12/13 12:14:11;;;;;;;43.17;27.20;;;;;;;16.33;100.00;101047.00;143718;578;47006;-73
2023/12/13 12:16:37;;;;;;;37.60;25.20;;;;;;;16.24;100.00;101050.28;143720;606;47008;-74
2023/12/13 12:19:04;;;;;;;40.33;25.15;;;;;;;16.13;100.00;101057.31;143721;576;47004;-74
2023/12/13 12:21:34;;;;;;;38.20;25.90;;;;;;;16.11;100.00;101056.69;143726;585;46026;-73
2023/12/13 12:24:00;;;;;;;30.45;23.35;;;;;;;16.10;100.00;101050.44;143721;593;47006;-70
2023/12/13 12:26:27;;;;;;;33.15;24.67;;;;;;;16.14;100.00;101045.41;143723;603;47009;-71
2023/12/13 12:28:54;;;;;;;33.85;21.85;;;;;;;16.14;100.00;101057.06;143722;575;47006;-72
2023/12/13 12:31:21;;;;;;;41.17;23.12;;;;;;;16.12;100.00;101050.22;143721;587;47012;-72
2023/12/13 12:33:57;;;;;;;41.42;24.02;;;;;;;16.18;100.00;101050.13;143720;618;47006;-71
2023/12/13 12:36:24;;;;;;;32.53;22.98;;;;;;;16.21;100.00;101055.13;143720;595;47002;-75
2023/12/13 12:38:51;;;;;;;36.20;22.75;;;;;;;16.23;100.00;101052.16;143721;569;47006;-73
2023/12/13 12:41:18;;;;;;;36.03;22.33;;;;;;;16.26;100.00;101059.00;143721;569;48927;-73
2023/12/13 12:43:49;;;;;;;36.97;22.90;;;;;;;16.28;100.00;101057.72;143722;572;47006;-72
2023/12/13 12:46:21;;;;;;;43.10;27.05;;;;;;;16.36;100.00;101056.59;143721;572;47008;-70
2023/12/13 12:48:47;;;;;;;54.38;31.10;;;;;;;16.27;100.00;101060.66;143722;581;47004;-70
2023/12/13 12:51:13;;;;;;;40.35;26.92;;;;;;;16.31;100.00;101056.44;143722;627;47010;-71
2023/12/13 12:53:40;;;;;;;42.00;25.75;;;;;;;16.37;100.00;101037.37;143720;602;47008;-73
2023/12/13 12:56:07;;;;;;;36.33;24.60;;;;;;;16.41;100.00;101043.19;143720;605;47009;-71
2023/12/13 12:58:33;;;;;;;34.17;24.12;;;;;;;16.41;100.00;101031.50;143725;588;47002;-69
2023/12/13 13:01:00;;;;;;;33.90;23.73;;;;;;;16.49;100.00;101033.91;143719;581;48006;-71
2023/12/13 13:03:26;;;;;;;36.90;22.83;;;;;;;16.47;100.00;101028.69;143722;574;47013;-72